East Longmeadow, Massachusetts
Current Conditions -  °F | °C
As of 6:58 PM on Tuesday 25 Nov 2014 (Local Time) from KCEF Reporting Station
Clear Clear  
Wind Chill: 41°   Ceiling: Unl
Heat Index: 44°   Visibility: 10mi
Dew Point: 27°   Wind: 5mph
Humidity: 51%   Direction: 200°SSW
Pressure: 30.01"   Gusts: NA
Location:  42.06°N, 72.51°W
Report Text: KCEF 252358Z AUTO 20004KT 10SM CLR 07/M03 A3001 RMK AO2 SLP169 T00651030 10137 20059 52027
Loading
Personal Weather Stations






























Interactive Weather Map New forecast layout! Learn more

10-Day Weather Forecast

Advertisements
Track Severe Weather on mobile